Time;durP1;ratioP1;P1;durP2;ratioP2;P2;SDS_P1;SDS_P2;PMS_P1;PMS_P2;Temp;Humidity;BMP_temperature;BMP_pressure;BME280_temperature;BME280_humidity;BME280_pressure;Samples;Min_cycle;Max_cycle;Signal;HPM_P1;HPM_P2
2021/03/03 00:00:54;;;;;;;28.88;13.57;;;;;;;8.55;60.20;101523.03;5096184;28;20062;-75
2021/03/03 00:03:20;;;;;;;29.27;12.45;;;;;;;8.55;59.42;101510.59;5078254;28;20058;-75
2021/03/03 00:05:47;;;;;;;29.48;11.48;;;;;;;8.55;59.91;101505.28;5078513;28;20486;-76
2021/03/03 00:08:13;;;;;;;33.03;13.48;;;;;;;8.56;59.17;101517.66;5096155;28;20055;-76
2021/03/03 00:10:39;;;;;;;32.92;13.68;;;;;;;8.56;59.84;101512.34;5095827;28;20079;-76
2021/03/03 00:13:06;;;;;;;30.13;12.60;;;;;;;8.62;59.20;101515.75;5096820;28;20051;-76
2021/03/03 00:15:32;;;;;;;25.13;12.25;;;;;;;8.66;59.01;101512.94;5079150;28;20352;-75
2021/03/03 00:17:59;;;;;;;24.05;11.85;;;;;;;8.71;58.90;101512.78;5106320;28;20067;-75
2021/03/03 00:20:25;;;;;;;29.25;12.60;;;;;;;8.68;59.63;101513.75;5095214;28;20501;-75
2021/03/03 00:22:51;;;;;;;25.75;12.20;;;;;;;8.61;59.61;101514.84;5111075;28;20044;-75
2021/03/03 00:25:18;;;;;;;29.42;12.02;;;;;;;8.60;59.22;101509.59;5097743;28;20083;-76
2021/03/03 00:27:45;;;;;;;27.13;12.43;;;;;;;8.61;59.53;101511.34;5095990;28;20113;-75
2021/03/03 00:30:15;;;;;;;32.25;12.70;;;;;;;8.56;59.54;101507.03;5096261;28;20056;-76
2021/03/03 00:32:42;;;;;;;34.17;13.23;;;;;;;8.61;59.37;101519.31;5095824;28;20061;-76
2021/03/03 00:35:09;;;;;;;31.23;13.35;;;;;;;8.56;59.42;101506.16;5095707;28;20105;-75
2021/03/03 00:37:36;;;;;;;23.80;11.50;;;;;;;8.58;59.68;101514.09;5095517;28;20052;-75
2021/03/03 00:40:04;;;;;;;21.23;11.93;;;;;;;8.58;59.50;101509.66;5084628;28;20052;-76
2021/03/03 00:42:31;;;;;;;25.90;12.38;;;;;;;8.55;59.50;101502.63;5075522;28;20075;-75
2021/03/03 00:44:57;;;;;;;34.03;12.88;;;;;;;8.55;59.38;101505.28;5074135;28;20076;-76
2021/03/03 00:47:23;;;;;;;26.77;13.57;;;;;;;8.65;58.57;101505.88;5058128;28;20052;-76
2021/03/03 00:49:50;;;;;;;26.92;12.05;;;;;;;8.60;58.96;101509.59;5095127;28;20117;-76
2021/03/03 00:52:16;;;;;;;28.17;12.38;;;;;;;8.75;58.60;101511.78;5060630;28;20460;-75
2021/03/03 00:54:43;;;;;;;32.08;14.00;;;;;;;8.75;58.46;101514.44;5077667;28;20326;-75
2021/03/03 00:57:10;;;;;;;29.58;13.60;;;;;;;8.78;57.98;101521.47;5095396;28;20052;-76
2021/03/03 00:59:36;;;;;;;33.05;11.77;;;;;;;8.78;57.75;101508.16;5095032;28;20056;-76
2021/03/03 01:02:03;;;;;;;31.55;13.20;;;;;;;8.88;58.10;101509.59;5077581;28;20048;-75
2021/03/03 01:04:29;;;;;;;27.17;13.02;;;;;;;9.04;56.81;101511.78;5095183;28;20087;-76
2021/03/03 01:06:56;;;;;;;33.33;12.60;;;;;;;9.09;56.82;101512.47;5095190;28;20044;-76
2021/03/03 01:09:23;;;;;;;27.33;12.57;;;;;;;9.01;57.22;101510.06;5094946;28;20418;-76
2021/03/03 01:11:49;;;;;;;27.25;12.23;;;;;;;9.01;57.38;101511.84;5096038;28;20059;-76
2021/03/03 01:14:16;;;;;;;31.80;12.45;;;;;;;8.98;57.50;101504.81;5099343;28;20070;-76
2021/03/03 01:16:48;;;;;;;31.77;12.63;;;;;;;8.95;57.63;101507.59;5099076;28;20498;-76
2021/03/03 01:19:15;;;;;;;29.23;11.55;;;;;;;8.98;56.85;101501.31;5099333;28;20050;-76
2021/03/03 01:21:43;;;;;;;29.58;12.57;;;;;;;8.96;57.36;101514.66;5064889;28;20055;-76
2021/03/03 01:24:10;;;;;;;26.42;12.68;;;;;;;8.94;57.14;101509.38;5099231;28;20361;-76
2021/03/03 01:26:37;;;;;;;29.95;12.30;;;;;;;8.95;57.09;101504.94;5099268;28;20090;-76
2021/03/03 01:29:03;;;;;;;34.25;12.85;;;;;;;8.95;57.09;101496.97;5081103;28;20044;-75
2021/03/03 01:31:29;;;;;;;35.10;13.27;;;;;;;8.95;57.00;101496.97;5080982;28;20048;-76
2021/03/03 01:33:56;;;;;;;25.85;11.90;;;;;;;8.94;56.86;101500.53;5081202;28;20055;-75
2021/03/03 01:36:22;;;;;;;31.08;13.43;;;;;;;9.05;56.01;101498.38;5099130;28;20051;-76
2021/03/03 01:38:48;;;;;;;25.83;11.98;;;;;;;9.13;56.12;101495.47;5098782;28;20051;-76
2021/03/03 01:41:15;;;;;;;27.13;11.90;;;;;;;9.09;56.43;101486.72;5080830;28;20105;-76
2021/03/03 01:43:41;;;;;;;32.63;12.65;;;;;;;9.10;56.04;101487.59;5080691;28;20068;-76
2021/03/03 01:46:08;;;;;;;24.13;12.07;;;;;;;9.02;56.95;101470.97;5098534;28;20044;-76
2021/03/03 01:48:34;;;;;;;29.67;12.57;;;;;;;9.02;56.88;101479.84;5098502;28;20063;-75
2021/03/03 01:51:01;;;;;;;26.67;12.43;;;;;;;8.90;57.22;101478.47;5098517;28;20345;-75
2021/03/03 01:53:29;;;;;;;21.75;12.57;;;;;;;8.86;58.44;101478.59;5080883;28;20052;-75
2021/03/03 01:55:55;;;;;;;24.65;12.57;;;;;;;8.78;59.06;101484.19;5098428;28;20074;-75
2021/03/03 01:58:22;;;;;;;30.40;12.40;;;;;;;8.78;58.03;101473.53;5098429;28;20052;-76
2021/03/03 02:00:49;;;;;;;29.05;13.18;;;;;;;8.73;58.61;101473.69;5098718;28;20079;-75
2021/03/03 02:03:16;;;;;;;26.20;10.77;;;;;;;8.75;57.94;101466.53;5100551;28;20059;-75
2021/03/03 02:05:44;;;;;;;25.48;11.25;;;;;;;8.77;58.33;101470.00;5101313;28;20051;-76
2021/03/03 02:08:20;;;;;;;32.22;11.90;;;;;;;8.71;58.58;101464.00;5098430;28;20052;-76
2021/03/03 02:10:53;;;;;;;24.38;12.27;;;;;;;8.66;58.93;101467.69;5098029;28;20056;-76
2021/03/03 02:13:29;;;;;;;27.33;12.18;;;;;;;8.58;59.19;101468.84;5097169;28;20048;-76
2021/03/03 02:15:59;;;;;;;25.13;12.50;;;;;;;8.55;59.55;101465.38;5098395;28;20392;-76
2021/03/03 02:18:30;;;;;;;24.63;12.23;;;;;;;8.62;58.79;101473.16;5097981;28;20051;-76
2021/03/03 02:21:09;;;;;;;22.17;11.55;;;;;;;8.60;59.43;101462.56;5080245;28;20048;-76
2021/03/03 02:24:05;;;;;;;32.65;12.23;;;;;;;8.65;58.44;101459.75;5096929;28;20059;-76
2021/03/03 02:26:34;;;;;;;28.85;11.43;;;;;;;8.66;58.92;101461.50;5097784;28;20346;-76
2021/03/03 02:29:06;;;;;;;24.45;11.50;;;;;;;8.65;58.76;101457.97;5097042;28;20044;-76
2021/03/03 02:31:39;;;;;;;27.98;11.90;;;;;;;8.66;58.69;101445.53;5097778;28;20437;-76
2021/03/03 02:34:07;;;;;;;23.00;10.90;;;;;;;8.68;58.34;101454.34;5097687;28;20051;-76
2021/03/03 02:36:36;;;;;;;31.23;12.15;;;;;;;8.70;58.75;101449.81;5097571;28;20044;-76
2021/03/03 02:39:04;;;;;;;26.48;12.80;;;;;;;8.64;59.27;101447.34;5097412;28;20051;-76
2021/03/03 02:41:32;;;;;;;31.63;12.43;;;;;;;8.52;59.59;101438.88;5097718;28;20052;-76
2021/03/03 02:44:00;;;;;;;32.13;12.60;;;;;;;8.61;58.27;101447.47;5080237;28;20051;-76
2021/03/03 02:46:26;;;;;;;24.83;12.23;;;;;;;8.53;59.26;101445.03;5097591;28;20060;-76
2021/03/03 02:48:53;;;;;;;30.02;11.50;;;;;;;8.52;59.11;101440.66;5097504;28;20056;-76
2021/03/03 02:51:19;;;;;;;26.63;11.95;;;;;;;8.42;59.37;101430.28;5098165;28;20044;-76
2021/03/03 02:53:46;;;;;;;25.08;11.95;;;;;;;8.40;60.02;101439.22;5081962;28;20059;-76
2021/03/03 02:56:12;;;;;;;24.88;11.70;;;;;;;8.29;60.43;101428.91;5099509;28;20056;-76
2021/03/03 02:58:38;;;;;;;31.48;13.13;;;;;;;8.38;59.43;101446.34;5081327;28;20048;-76
2021/03/03 03:01:08;;;;;;;28.58;12.88;;;;;;;8.38;60.15;101441.03;5098529;28;20059;-75
2021/03/03 03:03:58;;;;;;;31.48;12.07;;;;;;;8.31;60.81;101434.16;5097540;28;20051;-76
2021/03/03 03:06:29;;;;;;;27.92;12.57;;;;;;;8.25;60.61;101436.13;5097309;28;20040;-75
2021/03/03 03:09:05;;;;;;;31.15;12.80;;;;;;;8.20;60.51;101432.72;5079365;28;20044;-76
2021/03/03 03:11:32;;;;;;;27.95;12.55;;;;;;;8.18;61.23;101436.34;5097235;28;20117;-76
2021/03/03 03:14:05;;;;;;;32.53;12.15;;;;;;;8.14;61.00;101439.09;5097096;28;20048;-75
2021/03/03 03:16:38;;;;;;;29.67;12.77;;;;;;;8.01;61.73;101430.63;5097073;28;20483;-75
2021/03/03 03:19:11;;;;;;;25.77;13.55;;;;;;;8.06;61.58;101426.97;5096988;28;20048;-75
2021/03/03 03:21:39;;;;;;;24.95;11.73;;;;;;;8.08;60.81;101433.97;5096533;28;20055;-77
2021/03/03 03:24:07;;;;;;;27.58;11.35;;;;;;;7.89;61.30;101407.03;5096534;28;20353;-75
2021/03/03 03:26:36;;;;;;;27.55;12.82;;;;;;;7.98;61.73;101432.50;5096769;28;20105;-75
2021/03/03 03:29:03;;;;;;;26.65;11.95;;;;;;;7.88;62.67;101438.09;5096950;28;20052;-75
2021/03/03 03:31:29;;;;;;;25.30;11.98;;;;;;;7.86;62.37;101428.41;5096368;28;20306;-75
2021/03/03 03:33:57;;;;;;;26.60;12.52;;;;;;;7.81;62.93;101444.50;5096433;28;20373;-75
2021/03/03 03:36:23;;;;;;;26.83;12.18;;;;;;;7.73;63.49;101431.41;5079073;28;20048;-75
2021/03/03 03:38:49;;;;;;;27.27;12.63;;;;;;;7.72;63.20;101435.00;5078863;28;20075;-75
2021/03/03 03:41:16;;;;;;;33.83;11.57;;;;;;;7.73;63.50;101434.06;5078586;28;20098;-75
2021/03/03 03:43:44;;;;;;;23.77;11.30;;;;;;;7.71;63.41;101422.63;5078702;28;20058;-75
2021/03/03 03:46:11;;;;;;;31.70;12.98;;;;;;;7.77;63.43;101439.28;5096562;28;20074;-75
2021/03/03 03:48:38;;;;;;;26.88;12.20;;;;;;;7.69;64.07;101427.09;5096194;28;20063;-75
2021/03/03 03:51:05;;;;;;;26.63;11.32;;;;;;;7.78;64.48;101436.59;5096069;28;20056;-76
2021/03/03 03:53:33;;;;;;;22.70;12.43;;;;;;;7.74;64.32;101434.97;5096388;28;20052;-76
2021/03/03 03:56:00;;;;;;;22.80;10.57;;;;;;;7.78;64.12;101439.25;5095994;28;20299;-76
2021/03/03 03:58:28;;;;;;;27.67;10.95;;;;;;;7.75;63.82;101442.88;5078816;28;20127;-75
2021/03/03 04:00:55;;;;;;;36.92;14.18;;;;;;;7.79;63.27;101450.78;5095949;28;20056;-75
2021/03/03 04:03:21;;;;;;;22.13;11.43;;;;;;;7.73;63.91;101449.13;5078040;28;20048;-75
2021/03/03 04:05:47;;;;;;;29.73;12.35;;;;;;;7.60;63.42;101430.91;5096074;28;20055;-76
2021/03/03 04:08:13;;;;;;;31.10;12.30;;;;;;;7.74;62.67;101457.06;5096058;28;20052;-75
2021/03/03 04:10:39;;;;;;;28.17;13.07;;;;;;;7.74;63.11;101451.75;5096091;28;20052;-75
2021/03/03 04:13:06;;;;;;;26.80;11.77;;;;;;;7.77;63.32;101455.25;5078068;28;20134;-75
2021/03/03 04:15:32;;;;;;;24.50;12.68;;;;;;;7.81;63.32;101456.91;5095768;28;20062;-75
2021/03/03 04:17:58;;;;;;;28.08;11.27;;;;;;;7.82;63.42;101456.00;5095568;28;20135;-75
2021/03/03 04:20:24;;;;;;;31.20;11.90;;;;;;;7.84;62.30;101454.19;5094567;28;20051;-75
2021/03/03 04:22:51;;;;;;;31.50;12.20;;;;;;;7.90;62.89;101463.75;5077674;28;20052;-75
2021/03/03 04:25:18;;;;;;;32.80;11.15;;;;;;;7.97;60.82;101446.72;5095969;28;20052;-75
2021/03/03 04:27:45;;;;;;;24.60;11.43;;;;;;;8.04;62.09;101452.69;5095780;28;20052;-75
2021/03/03 04:30:14;;;;;;;23.55;10.88;;;;;;;8.13;60.54;101453.28;5095733;28;20044;-75
2021/03/03 04:32:40;;;;;;;27.13;10.82;;;;;;;8.14;61.02;101455.06;5095599;28;20058;-75
2021/03/03 04:35:09;;;;;;;27.50;11.88;;;;;;;8.23;60.51;101461.03;5077852;28;20087;-75
2021/03/03 04:37:36;;;;;;;27.05;10.90;;;;;;;8.23;61.05;101456.56;5095629;28;20093;-75
2021/03/03 04:40:05;;;;;;;25.13;10.65;;;;;;;8.24;60.43;101445.00;5095318;28;20101;-76
2021/03/03 04:42:31;;;;;;;24.02;12.13;;;;;;;8.25;61.04;101453.84;5095194;28;20059;-76
2021/03/03 04:44:57;;;;;;;29.40;11.32;;;;;;;8.23;61.79;101453.88;5077440;28;20062;-76
2021/03/03 04:47:23;;;;;;;29.15;11.45;;;;;;;8.21;61.93;101455.75;5094341;28;20083;-76
2021/03/03 04:49:50;;;;;;;21.80;11.27;;;;;;;8.24;60.93;101454.78;5095131;28;20052;-76
2021/03/03 04:52:16;;;;;;;27.90;11.63;;;;;;;8.21;60.85;101453.06;5095311;28;20097;-76
2021/03/03 04:54:42;;;;;;;30.17;12.25;;;;;;;8.28;60.13;101449.31;5094385;28;20059;-76
2021/03/03 04:57:08;;;;;;;34.30;11.98;;;;;;;8.28;60.79;101454.63;5095363;28;20056;-76
2021/03/03 04:59:34;;;;;;;31.30;11.98;;;;;;;8.24;61.73;101449.47;5094976;28;20425;-76
2021/03/03 05:02:00;;;;;;;24.35;11.23;;;;;;;8.08;61.70;101433.97;5094965;28;20433;-75
2021/03/03 05:04:27;;;;;;;27.42;11.82;;;;;;;8.17;61.07;101445.25;5095068;28;20051;-75
2021/03/03 05:06:53;;;;;;;29.35;13.25;;;;;;;8.14;62.27;101454.19;5077370;28;20056;-75
2021/03/03 05:09:19;;;;;;;28.40;10.93;;;;;;;8.10;62.17;101453.41;5077335;28;20348;-76
2021/03/03 05:11:46;;;;;;;27.13;11.52;;;;;;;7.98;62.67;101446.66;5095096;28;20048;-75
2021/03/03 05:14:12;;;;;;;26.13;11.32;;;;;;;8.02;62.09;101450.97;5095018;28;20048;-74
2021/03/03 05:16:39;;;;;;;29.10;12.38;;;;;;;7.96;62.81;101445.81;5093759;28;20388;-74
2021/03/03 05:19:06;;;;;;;28.42;12.23;;;;;;;7.94;63.05;101452.09;5061507;28;20044;-75
2021/03/03 05:21:32;;;;;;;27.92;12.25;;;;;;;7.92;63.21;101446.84;5086374;28;20055;-75
2021/03/03 05:23:58;;;;;;;21.00;11.48;;;;;;;7.91;63.02;101453.09;5090570;28;20060;-75
2021/03/03 05:26:24;;;;;;;34.05;12.30;;;;;;;7.84;63.44;101454.19;5108339;28;20055;-75
2021/03/03 05:28:50;;;;;;;23.08;11.27;;;;;;;7.68;63.58;101425.34;5095225;28;20058;-75
2021/03/03 05:31:16;;;;;;;22.02;11.20;;;;;;;7.71;63.84;101438.56;5094619;28;20055;-75
2021/03/03 05:33:57;;;;;;;;;;;;;;;7.73;64.01;101451.78;5081238;28;20059;-75
2021/03/03 05:36:23;;;;;;;33.47;11.85;;;;;;;7.72;62.85;101434.13;5096640;28;20264;-76
2021/03/03 05:38:49;;;;;;;27.00;11.60;;;;;;;7.71;63.94;101443.00;5095293;28;20048;-75
2021/03/03 05:41:16;;;;;;;32.63;11.82;;;;;;;7.66;64.22;101442.25;5095148;28;20089;-75
2021/03/03 05:43:42;;;;;;;28.08;11.98;;;;;;;7.65;64.39;101432.53;5076610;28;20075;-75
2021/03/03 05:46:08;;;;;;;23.45;11.27;;;;;;;7.69;64.08;101432.41;5095222;28;20048;-76
2021/03/03 05:49:02;;;;;;;25.48;12.75;;;;;;;7.69;63.92;101429.75;5076193;28;20063;-75
2021/03/03 05:51:30;;;;;;;29.25;11.85;;;;;;;7.79;63.44;101430.38;5078674;28;20044;-74
2021/03/03 05:53:59;;;;;;;27.77;12.30;;;;;;;7.79;63.54;101427.72;5081001;28;20044;-75
2021/03/03 05:56:25;;;;;;;28.73;11.93;;;;;;;7.91;62.35;101428.28;5081943;28;20413;-74
2021/03/03 05:58:53;;;;;;;29.75;12.13;;;;;;;7.96;62.34;101427.22;5098164;28;20406;-75
2021/03/03 06:01:21;;;;;;;31.48;11.65;;;;;;;8.01;61.77;101427.09;5098807;28;20058;-75
2021/03/03 06:03:48;;;;;;;30.40;12.60;;;;;;;8.09;61.66;101434.81;5080618;28;20056;-75
2021/03/03 06:06:15;;;;;;;25.98;12.77;;;;;;;8.17;61.68;101431.94;5098992;28;20113;-75
2021/03/03 06:08:41;;;;;;;32.33;12.65;;;;;;;8.17;61.61;101430.13;5080300;28;20052;-75
2021/03/03 06:11:07;;;;;;;28.83;13.07;;;;;;;8.19;61.70;101431.00;5079791;28;20059;-76
2021/03/03 06:13:35;;;;;;;31.55;13.20;;;;;;;8.18;61.62;101431.91;5079824;28;20048;-76
2021/03/03 06:16:01;;;;;;;28.38;13.30;;;;;;;8.13;62.26;101424.03;5098387;28;20085;-75
2021/03/03 06:18:28;;;;;;;24.85;12.10;;;;;;;8.11;61.77;101423.22;5098028;28;20050;-76
2021/03/03 06:20:55;;;;;;;24.23;12.30;;;;;;;8.13;61.87;101431.16;5080420;28;20044;-75
2021/03/03 06:23:26;;;;;;;28.58;12.50;;;;;;;8.05;61.69;101425.22;5097683;28;20051;-75
2021/03/03 06:25:56;;;;;;;29.23;12.20;;;;;;;8.08;62.16;101438.41;5097065;28;20075;-76
2021/03/03 06:28:34;;;;;;;28.58;12.40;;;;;;;8.06;62.53;101434.94;5097971;28;20075;-76
2021/03/03 06:31:01;;;;;;;35.38;13.63;;;;;;;8.04;62.42;101442.94;5097643;28;20437;-76
2021/03/03 06:33:28;;;;;;;26.85;12.05;;;;;;;8.01;62.62;101443.91;5080157;28;20056;-74
2021/03/03 06:35:54;;;;;;;32.55;13.10;;;;;;;7.99;62.83;101444.88;5097574;28;20072;-73
2021/03/03 06:38:28;;;;;;;29.33;13.00;;;;;;;7.95;62.65;101443.22;5078962;28;20047;-74
2021/03/03 06:40:58;;;;;;;29.40;13.48;;;;;;;7.98;62.80;101452.00;5097350;28;20055;-74
2021/03/03 06:43:29;;;;;;;35.40;13.32;;;;;;;8.01;61.96;101449.22;5077608;28;20052;-75
2021/03/03 06:45:56;;;;;;;33.15;12.85;;;;;;;8.06;61.89;101453.53;5097038;28;20091;-73
2021/03/03 06:48:50;;;;;;;32.53;13.82;;;;;;;8.04;62.92;101458.00;5094347;28;20071;-73
2021/03/03 06:51:30;;;;;;;32.60;14.40;;;;;;;8.06;62.20;101453.53;5091508;28;20512;-73
2021/03/03 06:54:00;;;;;;;25.00;13.40;;;;;;;8.04;63.26;101452.69;5096876;28;20052;-73
2021/03/03 06:56:47;;;;;;;34.92;14.48;;;;;;;7.97;63.55;101450.25;5096000;28;20101;-73
2021/03/03 06:59:13;;;;;;;26.23;14.27;;;;;;;8.01;63.87;101454.53;5095726;28;20036;-73
2021/03/03 07:01:40;;;;;;;29.42;13.82;;;;;;;8.10;63.51;101458.72;5096905;28;20051;-74
2021/03/03 07:04:31;;;;;;;30.15;13.95;;;;;;;8.12;63.22;101462.19;5096532;28;20048;-73
2021/03/03 07:07:18;;;;;;;27.80;13.88;;;;;;;8.22;63.00;101461.94;5095765;28;20429;-77
2021/03/03 07:09:49;;;;;;;32.28;14.70;;;;;;;8.28;62.97;101462.59;5093947;28;20052;-75
2021/03/03 07:12:23;;;;;;;32.88;14.20;;;;;;;8.33;62.86;101464.28;5079262;28;20048;-75
2021/03/03 07:15:01;;;;;;;;;;;;;;;8.36;63.72;101469.47;5097477;28;20056;-72
2021/03/03 07:17:35;;;;;;;654.97;72.10;;;;;;;8.35;64.08;101473.94;5093624;28;20270;-74
2021/03/03 07:20:08;;;;;;;426.75;48.80;;;;;;;8.43;62.39;101471.91;5076063;28;20072;-72
2021/03/03 07:22:39;;;;;;;302.98;40.33;;;;;;;8.54;63.20;101473.38;5095759;28;20055;-72
2021/03/03 07:25:07;;;;;;;104.72;19.67;;;;;;;8.64;61.86;101480.19;5075950;28;20047;-76
2021/03/03 07:27:34;;;;;;;142.52;23.83;;;;;;;8.72;62.80;101463.94;5093041;28;20048;-72
2021/03/03 07:30:18;;;;;;;507.30;61.05;;;;;;;8.80;62.68;101466.38;5094824;28;20059;-72
2021/03/03 07:32:44;;;;;;;395.80;46.10;;;;;;;8.87;62.35;101470.56;5093804;28;20161;-75
2021/03/03 07:35:28;;;;;;;158.18;28.17;;;;;;;9.00;60.64;101480.81;5092629;28;20117;-74
2021/03/03 07:37:56;;;;;;;348.52;43.97;;;;;;;9.09;60.80;101476.06;5077390;28;20106;-77
2021/03/03 07:40:30;;;;;;;87.63;21.73;;;;;;;9.19;59.73;101468.63;5095137;28;20445;-72
2021/03/03 07:43:01;;;;;;;66.82;16.63;;;;;;;9.27;59.44;101476.38;5077637;28;20413;-75
2021/03/03 07:45:38;;;;;;;33.53;14.02;;;;;;;9.43;58.48;101465.16;5093045;28;20048;-73
2021/03/03 07:48:06;;;;;;;88.78;17.52;;;;;;;9.51;58.30;101476.41;5092912;28;20092;-73
2021/03/03 07:50:33;;;;;;;86.90;19.10;;;;;;;9.49;58.84;101478.28;5095452;28;20090;-74
2021/03/03 07:53:02;;;;;;;139.50;25.38;;;;;;;9.48;58.42;101466.72;5095841;28;20047;-75
2021/03/03 07:55:29;;;;;;;112.00;21.33;;;;;;;9.59;58.70;101473.50;5098567;28;20059;-74
2021/03/03 07:57:58;;;;;;;45.28;15.77;;;;;;;9.61;58.45;101476.97;5101509;28;20105;-73
2021/03/03 08:00:27;;;;;;;27.02;14.63;;;;;;;9.63;58.46;101464.44;5098430;28;20044;-73
2021/03/03 08:02:58;;;;;;;48.05;16.33;;;;;;;9.60;58.30;101459.22;5100088;28;20440;-76
2021/03/03 08:05:28;;;;;;;37.53;15.40;;;;;;;9.78;57.78;101473.69;5096109;28;20340;-77
2021/03/03 08:08:24;;;;;;;30.65;15.15;;;;;;;9.86;57.60;101468.94;5099262;28;20056;-74
2021/03/03 08:11:11;;;;;;;299.73;38.95;;;;;;;9.80;58.15;101469.16;5096069;28;20135;-76
2021/03/03 08:13:39;;;;;;;56.28;16.02;;;;;;;9.76;58.13;101465.75;5094839;28;20055;-73
2021/03/03 08:16:07;;;;;;;53.28;15.20;;;;;;;9.84;57.86;101475.25;5093095;28;20059;-73
2021/03/03 08:18:34;;;;;;;37.45;16.17;;;;;;;9.90;57.84;101475.91;5095317;28;20062;-74
2021/03/03 08:21:06;;;;;;;29.45;13.85;;;;;;;9.99;57.74;101479.16;5095781;28;20074;-75
2021/03/03 08:23:33;;;;;;;140.15;25.15;;;;;;;10.01;58.05;101469.28;5096607;28;20052;-72
2021/03/03 08:26:00;;;;;;;53.60;16.48;;;;;;;10.07;58.07;101479.72;5096654;28;20078;-76
2021/03/03 08:28:33;;;;;;;52.75;15.55;;;;;;;10.16;57.61;101479.41;5093248;28;20044;-73
2021/03/03 08:31:09;;;;;;;35.90;15.23;;;;;;;10.27;57.61;101470.97;5095629;28;20047;-74
2021/03/03 08:33:38;;;;;;;31.58;13.88;;;;;;;10.39;57.40;101469.63;5093542;28;20054;-74
2021/03/03 08:36:22;;;;;;;31.17;13.93;;;;;;;10.46;56.77;101476.50;5092131;28;20139;-79
2021/03/03 08:38:54;;;;;;;39.88;14.73;;;;;;;10.48;57.08;101481.78;5091417;28;20106;-76
2021/03/03 08:41:22;;;;;;;34.40;15.02;;;;;;;10.56;56.73;101481.44;5094996;28;20071;-73
2021/03/03 08:43:58;;;;;;;33.35;14.93;;;;;;;10.59;56.75;101474.19;5077604;28;20048;-75
2021/03/03 08:46:25;;;;;;;30.70;15.10;;;;;;;10.60;56.82;101477.75;5094903;28;20092;-73
2021/03/03 08:48:57;;;;;;;35.95;15.50;;;;;;;10.65;56.50;101467.75;5094285;28;20135;-76
2021/03/03 08:51:35;;;;;;;33.10;14.82;;;;;;;10.72;56.29;101466.56;5094494;28;20048;-73
2021/03/03 08:54:03;;;;;;;40.00;15.57;;;;;;;10.83;56.04;101470.59;5094960;28;20052;-75
2021/03/03 08:56:45;;;;;;;31.08;15.32;;;;;;;10.91;56.10;101471.16;5092467;28;20056;-76
2021/03/03 08:59:33;;;;;;;35.45;15.00;;;;;;;10.94;55.84;101479.03;5091998;28;20043;-76
2021/03/03 09:02:12;;;;;;;29.85;14.52;;;;;;;11.01;56.12;101468.97;5093748;28;20421;-74
2021/03/03 09:04:47;;;;;;;28.65;14.70;;;;;;;11.17;55.40;101474.53;5094034;28;20079;-73
2021/03/03 09:07:20;;;;;;;58.92;16.98;;;;;;;11.27;55.57;101466.97;5089971;28;20040;-71
2021/03/03 09:09:50;;;;;;;38.08;16.73;;;;;;;11.34;54.89;101463.09;5094265;28;20458;-73
2021/03/03 09:12:22;;;;;;;32.78;17.05;;;;;;;11.38;55.16;101474.53;5093662;28;20047;-73
2021/03/03 09:14:50;;;;;;;29.85;14.43;;;;;;;11.42;55.46;101468.13;5089551;28;20060;-74
2021/03/03 09:17:25;;;;;;;47.53;17.25;;;;;;;11.55;55.37;101463.09;5094801;28;20079;-75
2021/03/03 09:19:59;;;;;;;52.60;17.73;;;;;;;11.54;55.51;101464.94;5092754;28;20044;-76
2021/03/03 09:22:42;;;;;;;39.20;16.25;;;;;;;11.69;55.12;101465.19;5077130;28;20150;-76
2021/03/03 09:25:18;;;;;;;45.63;16.42;;;;;;;11.67;55.70;101461.72;5091929;28;20055;-75
2021/03/03 09:27:56;;;;;;;33.70;16.00;;;;;;;11.75;55.51;101462.22;5072035;28;20043;-72
2021/03/03 09:30:25;;;;;;;38.10;16.30;;;;;;;11.77;55.84;101467.50;5095100;28;20077;-78
2021/03/03 09:32:53;;;;;;;40.67;17.20;;;;;;;11.88;55.30;101462.53;5094276;28;20048;-76
2021/03/03 09:35:31;;;;;;;37.50;16.67;;;;;;;11.94;55.00;101459.56;5082458;28;20052;-76
2021/03/03 09:37:58;;;;;;;40.33;17.40;;;;;;;11.93;55.14;101454.31;5098473;28;20058;-74
2021/03/03 09:40:29;;;;;;;45.83;17.50;;;;;;;12.00;55.31;101457.56;5100400;28;20047;-71
2021/03/03 09:42:56;;;;;;;34.10;17.13;;;;;;;12.11;54.80;101452.63;5099948;28;20040;-75
2021/03/03 09:45:24;;;;;;;40.38;18.35;;;;;;;12.22;54.41;101452.13;5098853;28;20061;-75
2021/03/03 09:47:51;;;;;;;38.65;17.65;;;;;;;12.29;54.18;101452.66;5078080;28;20055;-73
2021/03/03 09:50:21;;;;;;;43.97;18.98;;;;;;;12.33;53.99;101441.75;5097224;28;20085;-75
2021/03/03 09:52:53;;;;;;;40.53;17.52;;;;;;;12.34;54.13;101440.81;5098514;28;20048;-72
2021/03/03 09:55:21;;;;;;;47.22;17.35;;;;;;;12.39;55.14;101445.06;5079529;28;20045;-77
2021/03/03 09:57:56;;;;;;;37.90;17.00;;;;;;;12.47;54.36;101441.09;5097791;28;20048;-75
2021/03/03 10:00:40;;;;;;;41.65;18.52;;;;;;;12.65;53.79;101440.25;5079925;28;20421;-74
2021/03/03 10:03:16;;;;;;;40.92;18.40;;;;;;;12.62;53.43;101442.16;5097197;28;20051;-71
2021/03/03 10:05:43;;;;;;;38.78;18.73;;;;;;;12.64;53.49;101442.06;5098102;28;20044;-76
2021/03/03 10:08:12;;;;;;;43.05;19.00;;;;;;;12.72;53.60;101441.69;5097807;28;20056;-74
2021/03/03 10:10:46;;;;;;;44.97;17.75;;;;;;;12.82;53.28;101439.44;5097708;28;20048;-77
2021/03/03 10:13:24;;;;;;;42.80;19.52;;;;;;;12.89;53.32;101439.06;5094098;28;20067;-75
2021/03/03 10:15:55;;;;;;;43.67;18.35;;;;;;;12.98;53.24;101442.19;5089586;28;20048;-75
2021/03/03 10:18:23;;;;;;;40.45;18.10;;;;;;;13.00;53.34;101438.50;5061559;28;20052;-75
2021/03/03 10:20:51;;;;;;;42.80;19.52;;;;;;;13.09;53.13;101445.22;5062774;28;20318;-75
2021/03/03 10:23:19;;;;;;;42.92;19.77;;;;;;;13.24;52.74;101451.56;5098668;28;20048;-76
2021/03/03 10:26:03;;;;;;;46.70;19.63;;;;;;;13.31;51.17;101449.47;5099275;28;20083;-72
2021/03/03 10:28:29;;;;;;;43.28;21.15;;;;;;;13.34;52.03;101441.25;5102276;28;20044;-71
2021/03/03 10:31:04;;;;;;;52.40;20.85;;;;;;;13.47;51.40;101440.63;5105755;28;20044;-71
2021/03/03 10:33:36;;;;;;;45.38;20.52;;;;;;;13.52;50.68;101450.16;5085766;28;20051;-76
2021/03/03 10:36:25;;;;;;;43.70;20.23;;;;;;;13.64;50.55;101442.44;5099334;28;20047;-76
2021/03/03 10:38:55;;;;;;;47.22;22.95;;;;;;;13.70;49.39;101440.28;5093748;28;20040;-72
2021/03/03 10:41:30;;;;;;;47.17;22.08;;;;;;;13.74;49.80;101445.47;5096452;28;20350;-74
2021/03/03 10:43:56;;;;;;;49.30;21.67;;;;;;;13.84;49.68;101436.00;5092474;28;20138;-75
2021/03/03 10:46:24;;;;;;;53.65;24.45;;;;;;;13.80;48.73;101440.66;5077698;28;20040;-76
2021/03/03 10:48:53;;;;;;;47.38;24.17;;;;;;;13.85;48.36;101435.03;5077926;28;20062;-76
2021/03/03 10:51:32;;;;;;;53.10;22.60;;;;;;;13.89;48.95;101443.78;5078387;28;20778;-75
2021/03/03 10:53:59;;;;;;;55.95;23.65;;;;;;;13.94;48.71;101434.53;5093870;28;20044;-76
2021/03/03 10:56:27;;;;;;;54.70;24.60;;;;;;;14.08;47.94;101440.94;5096234;28;20055;-74
2021/03/03 10:58:58;;;;;;;48.22;24.08;;;;;;;14.13;47.99;101433.53;5078978;28;20460;-77
2021/03/03 11:01:39;;;;;;;57.13;25.02;;;;;;;14.29;47.70;101429.97;5095839;28;20327;-76
2021/03/03 11:04:06;;;;;;;49.47;24.17;;;;;;;14.31;47.19;101428.03;5095873;28;20048;-76
2021/03/03 11:06:36;;;;;;;56.92;24.83;;;;;;;14.48;47.61;101437.84;5078716;28;20044;-76
2021/03/03 11:09:15;;;;;;;56.05;24.67;;;;;;;14.70;46.75;101431.25;5096670;28;20067;-73
2021/03/03 11:11:49;;;;;;;54.65;24.95;;;;;;;14.73;46.73;101425.69;5096431;28;20158;-75
2021/03/03 11:14:16;;;;;;;51.05;25.60;;;;;;;14.74;46.49;101433.69;5073220;28;20044;-74
2021/03/03 11:16:47;;;;;;;53.55;26.42;;;;;;;14.79;46.13;101431.59;5096436;28;20048;-74
2021/03/03 11:19:14;;;;;;;49.22;24.00;;;;;;;14.91;46.26;101424.63;5095213;28;20779;-74
2021/03/03 11:21:41;;;;;;;56.78;25.48;;;;;;;15.03;46.13;101425.72;5096186;28;20043;-74
2021/03/03 11:24:08;;;;;;;53.85;26.15;;;;;;;15.14;46.05;101421.53;5096028;28;20040;-76
2021/03/03 11:26:38;;;;;;;53.67;26.02;;;;;;;15.21;44.76;101428.28;5096082;28;20047;-75